sensor_id;sensor_type;location;lat;lon;timestamp;P1;durP1;ratioP1;P2;durP2;ratioP2
20721;SDS011;10522;52.198;9.890;2022-07-05T00:02:13;2.77;;;1.10;;
20721;SDS011;10522;52.198;9.890;2022-07-05T00:04:39;6.83;;;1.33;;
20721;SDS011;10522;52.198;9.890;2022-07-05T00:07:04;5.00;;;1.83;;
20721;SDS011;10522;52.198;9.890;2022-07-05T00:09:46;1.87;;;1.70;;
20721;SDS011;10522;52.198;9.890;2022-07-05T00:12:13;4.40;;;1.40;;
20721;SDS011;10522;52.198;9.890;2022-07-05T00:14:40;1.77;;;1.20;;
20721;SDS011;10522;52.198;9.890;2022-07-05T00:17:06;3.80;;;1.90;;
20721;SDS011;10522;52.198;9.890;2022-07-05T00:19:31;1.70;;;1.60;;
20721;SDS011;10522;52.198;9.890;2022-07-05T00:21:57;1.53;;;1.43;;
20721;SDS011;10522;52.198;9.890;2022-07-05T00:24:23;1.90;;;1.70;;
20721;SDS011;10522;52.198;9.890;2022-07-05T00:26:49;3.27;;;1.50;;
20721;SDS011;10522;52.198;9.890;2022-07-05T00:29:15;3.60;;;1.40;;
20721;SDS011;10522;52.198;9.890;2022-07-05T00:31:40;2.90;;;1.13;;
20721;SDS011;10522;52.198;9.890;2022-07-05T00:34:06;3.03;;;1.53;;
20721;SDS011;10522;52.198;9.890;2022-07-05T00:36:31;2.17;;;1.40;;
20721;SDS011;10522;52.198;9.890;2022-07-05T00:38:57;4.07;;;1.33;;
20721;SDS011;10522;52.198;9.890;2022-07-05T00:41:22;1.37;;;1.23;;
20721;SDS011;10522;52.198;9.890;2022-07-05T00:43:55;4.83;;;1.73;;
20721;SDS011;10522;52.198;9.890;2022-07-05T00:46:22;2.83;;;1.63;;
20721;SDS011;10522;52.198;9.890;2022-07-05T00:48:49;3.53;;;1.33;;
20721;SDS011;10522;52.198;9.890;2022-07-05T00:51:15;2.17;;;1.57;;
20721;SDS011;10522;52.198;9.890;2022-07-05T00:53:40;2.10;;;1.33;;
20721;SDS011;10522;52.198;9.890;2022-07-05T00:56:08;1.83;;;1.53;;
20721;SDS011;10522;52.198;9.890;2022-07-05T00:58:35;1.30;;;1.20;;
20721;SDS011;10522;52.198;9.890;2022-07-05T01:01:01;3.80;;;1.30;;
20721;SDS011;10522;52.198;9.890;2022-07-05T01:03:28;2.60;;;1.27;;
20721;SDS011;10522;52.198;9.890;2022-07-05T01:05:54;1.40;;;1.30;;
20721;SDS011;10522;52.198;9.890;2022-07-05T01:08:21;2.50;;;1.60;;
20721;SDS011;10522;52.198;9.890;2022-07-05T01:10:48;3.37;;;1.20;;
20721;SDS011;10522;52.198;9.890;2022-07-05T01:13:15;4.77;;;1.70;;
20721;SDS011;10522;52.198;9.890;2022-07-05T01:15:41;7.57;;;1.83;;
20721;SDS011;10522;52.198;9.890;2022-07-05T01:18:07;2.03;;;1.27;;
20721;SDS011;10522;52.198;9.890;2022-07-05T01:20:34;1.73;;;1.60;;
20721;SDS011;10522;52.198;9.890;2022-07-05T01:23:00;2.70;;;1.40;;
20721;SDS011;10522;52.198;9.890;2022-07-05T01:25:27;1.90;;;1.50;;
20721;SDS011;10522;52.198;9.890;2022-07-05T01:27:54;1.53;;;1.37;;
20721;SDS011;10522;52.198;9.890;2022-07-05T01:30:21;2.80;;;1.70;;
20721;SDS011;10522;52.198;9.890;2022-07-05T01:32:46;1.40;;;1.30;;
20721;SDS011;10522;52.198;9.890;2022-07-05T01:35:12;1.70;;;1.40;;
20721;SDS011;10522;52.198;9.890;2022-07-05T01:37:40;2.73;;;1.70;;
20721;SDS011;10522;52.198;9.890;2022-07-05T01:40:05;1.70;;;1.20;;
20721;SDS011;10522;52.198;9.890;2022-07-05T01:42:31;2.93;;;1.30;;
20721;SDS011;10522;52.198;9.890;2022-07-05T01:44:57;2.60;;;1.30;;
20721;SDS011;10522;52.198;9.890;2022-07-05T01:47:23;1.40;;;1.30;;
20721;SDS011;10522;52.198;9.890;2022-07-05T01:49:49;1.67;;;1.43;;
20721;SDS011;10522;52.198;9.890;2022-07-05T01:52:19;2.60;;;1.40;;
20721;SDS011;10522;52.198;9.890;2022-07-05T01:54:46;1.57;;;1.40;;
20721;SDS011;10522;52.198;9.890;2022-07-05T01:57:12;3.50;;;1.80;;
20721;SDS011;10522;52.198;9.890;2022-07-05T01:59:37;1.97;;;1.30;;
20721;SDS011;10522;52.198;9.890;2022-07-05T02:02:03;2.20;;;1.67;;
20721;SDS011;10522;52.198;9.890;2022-07-05T02:04:30;3.70;;;1.83;;
20721;SDS011;10522;52.198;9.890;2022-07-05T02:06:58;1.40;;;1.23;;
20721;SDS011;10522;52.198;9.890;2022-07-05T02:09:24;4.10;;;1.30;;
20721;SDS011;10522;52.198;9.890;2022-07-05T02:11:49;3.03;;;1.50;;
20721;SDS011;10522;52.198;9.890;2022-07-05T02:14:15;1.50;;;1.20;;
20721;SDS011;10522;52.198;9.890;2022-07-05T02:16:41;2.47;;;1.33;;
20721;SDS011;10522;52.198;9.890;2022-07-05T02:19:06;1.90;;;1.40;;
20721;SDS011;10522;52.198;9.890;2022-07-05T02:21:32;2.03;;;1.50;;
20721;SDS011;10522;52.198;9.890;2022-07-05T02:23:57;2.13;;;1.40;;
20721;SDS011;10522;52.198;9.890;2022-07-05T02:26:23;1.83;;;1.30;;
20721;SDS011;10522;52.198;9.890;2022-07-05T02:28:48;1.77;;;1.67;;
20721;SDS011;10522;52.198;9.890;2022-07-05T02:31:14;2.23;;;1.73;;
20721;SDS011;10522;52.198;9.890;2022-07-05T02:33:41;6.03;;;2.27;;
20721;SDS011;10522;52.198;9.890;2022-07-05T02:36:10;4.97;;;1.70;;
20721;SDS011;10522;52.198;9.890;2022-07-05T02:38:37;1.63;;;1.53;;
20721;SDS011;10522;52.198;9.890;2022-07-05T02:41:04;2.10;;;1.90;;
20721;SDS011;10522;52.198;9.890;2022-07-05T02:43:31;3.57;;;2.00;;
20721;SDS011;10522;52.198;9.890;2022-07-05T02:45:58;2.17;;;1.97;;
20721;SDS011;10522;52.198;9.890;2022-07-05T02:48:24;4.30;;;2.37;;
20721;SDS011;10522;52.198;9.890;2022-07-05T02:50:49;2.67;;;1.90;;
20721;SDS011;10522;52.198;9.890;2022-07-05T02:53:15;2.47;;;1.67;;
20721;SDS011;10522;52.198;9.890;2022-07-05T02:55:40;2.47;;;1.70;;
20721;SDS011;10522;52.198;9.890;2022-07-05T02:58:05;2.27;;;2.07;;
20721;SDS011;10522;52.198;9.890;2022-07-05T03:00:31;2.60;;;2.00;;
20721;SDS011;10522;52.198;9.890;2022-07-05T03:02:57;2.80;;;1.77;;
20721;SDS011;10522;52.198;9.890;2022-07-05T03:05:22;4.93;;;2.10;;
20721;SDS011;10522;52.198;9.890;2022-07-05T03:07:48;3.07;;;2.07;;
20721;SDS011;10522;52.198;9.890;2022-07-05T03:10:13;3.07;;;1.67;;
20721;SDS011;10522;52.198;9.890;2022-07-05T03:12:39;3.90;;;1.70;;
20721;SDS011;10522;52.198;9.890;2022-07-05T03:15:05;2.83;;;1.70;;
20721;SDS011;10522;52.198;9.890;2022-07-05T03:17:31;5.07;;;2.33;;
20721;SDS011;10522;52.198;9.890;2022-07-05T03:19:56;3.13;;;1.77;;
20721;SDS011;10522;52.198;9.890;2022-07-05T03:22:22;5.10;;;2.17;;
20721;SDS011;10522;52.198;9.890;2022-07-05T03:24:47;5.83;;;2.00;;
20721;SDS011;10522;52.198;9.890;2022-07-05T03:27:13;2.90;;;1.87;;
20721;SDS011;10522;52.198;9.890;2022-07-05T03:29:38;2.43;;;2.13;;
20721;SDS011;10522;52.198;9.890;2022-07-05T03:32:04;3.93;;;2.00;;
20721;SDS011;10522;52.198;9.890;2022-07-05T03:34:30;4.07;;;1.80;;
20721;SDS011;10522;52.198;9.890;2022-07-05T03:36:55;3.10;;;2.53;;
20721;SDS011;10522;52.198;9.890;2022-07-05T03:39:21;2.60;;;1.87;;
20721;SDS011;10522;52.198;9.890;2022-07-05T03:41:46;1.80;;;1.70;;
20721;SDS011;10522;52.198;9.890;2022-07-05T03:44:12;1.93;;;1.63;;
20721;SDS011;10522;52.198;9.890;2022-07-05T03:46:37;2.20;;;2.00;;
20721;SDS011;10522;52.198;9.890;2022-07-05T03:49:03;2.77;;;1.60;;
20721;SDS011;10522;52.198;9.890;2022-07-05T03:51:28;2.90;;;2.17;;
20721;SDS011;10522;52.198;9.890;2022-07-05T03:53:54;2.53;;;2.27;;
20721;SDS011;10522;52.198;9.890;2022-07-05T03:56:19;3.87;;;1.63;;
20721;SDS011;10522;52.198;9.890;2022-07-05T03:58:48;3.80;;;2.37;;
20721;SDS011;10522;52.198;9.890;2022-07-05T04:01:14;2.83;;;2.10;;
20721;SDS011;10522;52.198;9.890;2022-07-05T04:03:39;4.53;;;2.57;;
20721;SDS011;10522;52.198;9.890;2022-07-05T04:06:05;6.20;;;2.60;;
20721;SDS011;10522;52.198;9.890;2022-07-05T04:08:31;2.83;;;2.50;;
20721;SDS011;10522;52.198;9.890;2022-07-05T04:10:57;6.07;;;2.50;;
20721;SDS011;10522;52.198;9.890;2022-07-05T04:13:22;4.27;;;2.87;;
20721;SDS011;10522;52.198;9.890;2022-07-05T04:15:48;2.70;;;2.50;;
20721;SDS011;10522;52.198;9.890;2022-07-05T04:18:14;5.67;;;2.67;;
20721;SDS011;10522;52.198;9.890;2022-07-05T04:20:40;3.80;;;2.57;;
20721;SDS011;10522;52.198;9.890;2022-07-05T04:23:05;6.03;;;2.63;;
20721;SDS011;10522;52.198;9.890;2022-07-05T04:25:31;2.57;;;2.37;;
20721;SDS011;10522;52.198;9.890;2022-07-05T04:27:56;5.27;;;2.70;;
20721;SDS011;10522;52.198;9.890;2022-07-05T04:30:23;6.40;;;2.57;;
20721;SDS011;10522;52.198;9.890;2022-07-05T04:32:49;3.57;;;2.80;;
20721;SDS011;10522;52.198;9.890;2022-07-05T04:35:15;4.90;;;2.70;;
20721;SDS011;10522;52.198;9.890;2022-07-05T04:37:42;4.20;;;2.70;;
20721;SDS011;10522;52.198;9.890;2022-07-05T04:40:09;3.10;;;2.80;;
20721;SDS011;10522;52.198;9.890;2022-07-05T04:42:36;2.67;;;2.43;;
20721;SDS011;10522;52.198;9.890;2022-07-05T04:45:02;4.50;;;2.80;;
20721;SDS011;10522;52.198;9.890;2022-07-05T04:47:28;5.27;;;3.07;;
20721;SDS011;10522;52.198;9.890;2022-07-05T04:49:54;3.10;;;2.80;;
20721;SDS011;10522;52.198;9.890;2022-07-05T04:52:21;11.33;;;2.73;;
20721;SDS011;10522;52.198;9.890;2022-07-05T04:54:48;6.13;;;3.27;;
20721;SDS011;10522;52.198;9.890;2022-07-05T04:57:13;4.73;;;2.40;;
20721;SDS011;10522;52.198;9.890;2022-07-05T04:59:39;7.87;;;2.87;;
20721;SDS011;10522;52.198;9.890;2022-07-05T05:02:04;4.47;;;2.67;;
20721;SDS011;10522;52.198;9.890;2022-07-05T05:04:30;3.80;;;2.53;;
20721;SDS011;10522;52.198;9.890;2022-07-05T05:06:55;6.40;;;2.63;;
20721;SDS011;10522;52.198;9.890;2022-07-05T05:09:21;4.40;;;2.40;;
20721;SDS011;10522;52.198;9.890;2022-07-05T05:11:47;4.00;;;2.67;;
20721;SDS011;10522;52.198;9.890;2022-07-05T05:14:12;8.57;;;2.77;;
20721;SDS011;10522;52.198;9.890;2022-07-05T05:16:38;3.20;;;2.40;;
20721;SDS011;10522;52.198;9.890;2022-07-05T05:19:04;4.13;;;2.40;;
20721;SDS011;10522;52.198;9.890;2022-07-05T05:21:30;4.37;;;2.67;;
20721;SDS011;10522;52.198;9.890;2022-07-05T05:23:55;4.00;;;2.73;;
20721;SDS011;10522;52.198;9.890;2022-07-05T05:26:21;2.47;;;2.27;;
20721;SDS011;10522;52.198;9.890;2022-07-05T05:28:46;4.13;;;2.53;;
20721;SDS011;10522;52.198;9.890;2022-07-05T05:31:12;5.33;;;2.87;;
20721;SDS011;10522;52.198;9.890;2022-07-05T05:33:37;2.47;;;2.20;;
20721;SDS011;10522;52.198;9.890;2022-07-05T05:36:03;4.10;;;2.47;;
20721;SDS011;10522;52.198;9.890;2022-07-05T05:38:29;4.30;;;1.90;;
20721;SDS011;10522;52.198;9.890;2022-07-05T05:40:54;2.77;;;2.43;;
20721;SDS011;10522;52.198;9.890;2022-07-05T05:43:20;4.93;;;2.30;;
20721;SDS011;10522;52.198;9.890;2022-07-05T05:45:45;6.37;;;2.70;;
20721;SDS011;10522;52.198;9.890;2022-07-05T05:48:11;5.80;;;2.37;;
20721;SDS011;10522;52.198;9.890;2022-07-05T05:50:37;2.90;;;2.20;;
20721;SDS011;10522;52.198;9.890;2022-07-05T05:53:06;2.57;;;2.17;;
20721;SDS011;10522;52.198;9.890;2022-07-05T05:55:32;7.03;;;2.03;;
20721;SDS011;10522;52.198;9.890;2022-07-05T05:58:18;2.53;;;1.80;;
20721;SDS011;10522;52.198;9.890;2022-07-05T06:00:45;2.83;;;2.43;;
20721;SDS011;10522;52.198;9.890;2022-07-05T06:03:13;3.10;;;2.10;;
20721;SDS011;10522;52.198;9.890;2022-07-05T06:05:40;4.67;;;2.00;;
20721;SDS011;10522;52.198;9.890;2022-07-05T06:08:05;3.53;;;2.07;;
20721;SDS011;10522;52.198;9.890;2022-07-05T06:10:31;3.10;;;2.17;;
20721;SDS011;10522;52.198;9.890;2022-07-05T06:12:59;3.27;;;2.50;;
20721;SDS011;10522;52.198;9.890;2022-07-05T06:15:26;5.23;;;2.53;;
20721;SDS011;10522;52.198;9.890;2022-07-05T06:17:52;5.20;;;2.23;;
20721;SDS011;10522;52.198;9.890;2022-07-05T06:20:19;6.23;;;2.13;;
20721;SDS011;10522;52.198;9.890;2022-07-05T06:22:46;5.97;;;2.00;;
20721;SDS011;10522;52.198;9.890;2022-07-05T06:25:12;2.90;;;2.00;;
20721;SDS011;10522;52.198;9.890;2022-07-05T06:27:41;2.20;;;1.80;;
20721;SDS011;10522;52.198;9.890;2022-07-05T06:30:09;6.43;;;2.70;;
20721;SDS011;10522;52.198;9.890;2022-07-05T06:32:35;4.70;;;2.23;;
20721;SDS011;10522;52.198;9.890;2022-07-05T06:35:01;3.77;;;2.10;;
20721;SDS011;10522;52.198;9.890;2022-07-05T06:37:27;3.13;;;2.03;;
20721;SDS011;10522;52.198;9.890;2022-07-05T06:39:52;8.97;;;2.33;;
20721;SDS011;10522;52.198;9.890;2022-07-05T06:42:18;2.47;;;1.80;;
20721;SDS011;10522;52.198;9.890;2022-07-05T06:44:43;10.17;;;1.80;;
20721;SDS011;10522;52.198;9.890;2022-07-05T06:47:09;2.30;;;1.70;;
20721;SDS011;10522;52.198;9.890;2022-07-05T06:49:40;4.73;;;2.10;;
20721;SDS011;10522;52.198;9.890;2022-07-05T06:52:05;2.50;;;1.73;;
20721;SDS011;10522;52.198;9.890;2022-07-05T06:54:31;6.60;;;2.00;;
20721;SDS011;10522;52.198;9.890;2022-07-05T06:56:57;6.73;;;1.87;;
20721;SDS011;10522;52.198;9.890;2022-07-05T06:59:22;6.13;;;1.70;;
20721;SDS011;10522;52.198;9.890;2022-07-05T07:01:48;2.23;;;1.60;;
20721;SDS011;10522;52.198;9.890;2022-07-05T07:04:13;2.53;;;2.33;;
20721;SDS011;10522;52.198;9.890;2022-07-05T07:06:39;2.70;;;1.30;;
20721;SDS011;10522;52.198;9.890;2022-07-05T07:09:04;3.40;;;1.30;;
20721;SDS011;10522;52.198;9.890;2022-07-05T07:11:46;2.20;;;1.47;;
20721;SDS011;10522;52.198;9.890;2022-07-05T07:14:13;2.30;;;1.67;;
20721;SDS011;10522;52.198;9.890;2022-07-05T07:16:39;4.37;;;1.47;;
20721;SDS011;10522;52.198;9.890;2022-07-05T07:19:05;3.47;;;1.80;;
20721;SDS011;10522;52.198;9.890;2022-07-05T07:21:30;3.73;;;1.53;;
20721;SDS011;10522;52.198;9.890;2022-07-05T07:23:56;1.87;;;1.20;;
20721;SDS011;10522;52.198;9.890;2022-07-05T07:26:21;1.47;;;1.37;;
20721;SDS011;10522;52.198;9.890;2022-07-05T07:28:47;3.67;;;1.70;;
20721;SDS011;10522;52.198;9.890;2022-07-05T07:31:12;3.57;;;1.53;;
20721;SDS011;10522;52.198;9.890;2022-07-05T07:33:38;1.93;;;1.53;;
20721;SDS011;10522;52.198;9.890;2022-07-05T07:36:03;4.37;;;1.47;;
20721;SDS011;10522;52.198;9.890;2022-07-05T07:38:29;6.27;;;2.40;;
20721;SDS011;10522;52.198;9.890;2022-07-05T07:40:55;4.73;;;1.27;;
20721;SDS011;10522;52.198;9.890;2022-07-05T07:43:21;2.03;;;1.73;;
20721;SDS011;10522;52.198;9.890;2022-07-05T07:45:47;1.47;;;0.90;;
20721;SDS011;10522;52.198;9.890;2022-07-05T07:48:13;5.40;;;1.10;;
20721;SDS011;10522;52.198;9.890;2022-07-05T07:50:39;1.07;;;0.97;;
20721;SDS011;10522;52.198;9.890;2022-07-05T07:53:04;2.43;;;0.80;;
20721;SDS011;10522;52.198;9.890;2022-07-05T07:55:30;1.60;;;1.07;;
20721;SDS011;10522;52.198;9.890;2022-07-05T07:57:55;3.70;;;0.80;;
20721;SDS011;10522;52.198;9.890;2022-07-05T08:00:21;3.40;;;0.80;;
20721;SDS011;10522;52.198;9.890;2022-07-05T08:02:46;1.13;;;0.80;;
20721;SDS011;10522;52.198;9.890;2022-07-05T08:05:12;5.30;;;1.10;;
20721;SDS011;10522;52.198;9.890;2022-07-05T08:07:37;2.97;;;1.60;;
20721;SDS011;10522;52.198;9.890;2022-07-05T08:10:06;0.87;;;0.83;;
20721;SDS011;10522;52.198;9.890;2022-07-05T08:12:32;1.77;;;0.90;;
20721;SDS011;10522;52.198;9.890;2022-07-05T08:14:58;1.60;;;0.97;;
20721;SDS011;10522;52.198;9.890;2022-07-05T08:17:24;1.40;;;1.10;;
20721;SDS011;10522;52.198;9.890;2022-07-05T08:19:49;1.20;;;1.07;;
20721;SDS011;10522;52.198;9.890;2022-07-05T08:22:33;1.10;;;1.00;;
20721;SDS011;10522;52.198;9.890;2022-07-05T08:24:59;4.50;;;1.10;;
20721;SDS011;10522;52.198;9.890;2022-07-05T08:27:24;1.10;;;1.00;;
20721;SDS011;10522;52.198;9.890;2022-07-05T08:29:50;1.40;;;1.00;;
20721;SDS011;10522;52.198;9.890;2022-07-05T08:32:16;1.17;;;0.93;;
20721;SDS011;10522;52.198;9.890;2022-07-05T08:34:42;4.83;;;1.00;;
20721;SDS011;10522;52.198;9.890;2022-07-05T08:37:08;2.07;;;0.90;;
20721;SDS011;10522;52.198;9.890;2022-07-05T08:39:34;1.73;;;1.10;;
20721;SDS011;10522;52.198;9.890;2022-07-05T08:42:00;1.97;;;0.97;;
20721;SDS011;10522;52.198;9.890;2022-07-05T08:44:27;1.50;;;1.03;;
20721;SDS011;10522;52.198;9.890;2022-07-05T08:46:55;2.57;;;0.90;;
20721;SDS011;10522;52.198;9.890;2022-07-05T08:49:27;1.40;;;1.07;;
20721;SDS011;10522;52.198;9.890;2022-07-05T08:51:53;3.60;;;1.37;;
20721;SDS011;10522;52.198;9.890;2022-07-05T08:54:20;1.20;;;1.10;;
20721;SDS011;10522;52.198;9.890;2022-07-05T08:56:47;2.40;;;0.93;;
20721;SDS011;10522;52.198;9.890;2022-07-05T08:59:13;3.90;;;1.17;;
20721;SDS011;10522;52.198;9.890;2022-07-05T09:01:39;1.60;;;1.10;;
20721;SDS011;10522;52.198;9.890;2022-07-05T09:04:05;2.93;;;0.93;;
20721;SDS011;10522;52.198;9.890;2022-07-05T09:06:35;1.30;;;1.20;;
20721;SDS011;10522;52.198;9.890;2022-07-05T09:09:02;4.93;;;1.33;;
20721;SDS011;10522;52.198;9.890;2022-07-05T09:11:29;1.37;;;1.13;;
20721;SDS011;10522;52.198;9.890;2022-07-05T09:14:07;2.13;;;1.43;;
20721;SDS011;10522;52.198;9.890;2022-07-05T09:16:43;3.43;;;1.00;;
20721;SDS011;10522;52.198;9.890;2022-07-05T09:19:08;1.77;;;1.07;;
20721;SDS011;10522;52.198;9.890;2022-07-05T09:21:34;1.47;;;1.00;;
20721;SDS011;10522;52.198;9.890;2022-07-05T09:24:05;0.87;;;0.80;;
20721;SDS011;10522;52.198;9.890;2022-07-05T09:26:33;2.00;;;0.90;;
20721;SDS011;10522;52.198;9.890;2022-07-05T09:29:07;1.47;;;0.90;;
20721;SDS011;10522;52.198;9.890;2022-07-05T09:31:38;1.07;;;0.90;;
20721;SDS011;10522;52.198;9.890;2022-07-05T09:34:06;1.00;;;0.80;;
20721;SDS011;10522;52.198;9.890;2022-07-05T09:42:10;2.07;;;0.70;;
20721;SDS011;10522;52.198;9.890;2022-07-05T09:44:38;1.37;;;0.70;;
20721;SDS011;10522;52.198;9.890;2022-07-05T09:47:07;1.30;;;0.80;;
20721;SDS011;10522;52.198;9.890;2022-07-05T09:49:35;3.60;;;0.90;;
20721;SDS011;10522;52.198;9.890;2022-07-05T09:52:01;2.17;;;1.20;;
20721;SDS011;10522;52.198;9.890;2022-07-05T09:54:27;1.30;;;1.00;;
20721;SDS011;10522;52.198;9.890;2022-07-05T09:56:52;1.87;;;0.80;;
20721;SDS011;10522;52.198;9.890;2022-07-05T09:59:18;2.53;;;0.87;;
20721;SDS011;10522;52.198;9.890;2022-07-05T10:01:45;2.20;;;1.00;;
20721;SDS011;10522;52.198;9.890;2022-07-05T10:04:11;2.13;;;1.37;;
20721;SDS011;10522;52.198;9.890;2022-07-05T10:06:40;1.37;;;0.70;;
20721;SDS011;10522;52.198;9.890;2022-07-05T10:09:05;0.73;;;0.73;;
20721;SDS011;10522;52.198;9.890;2022-07-05T10:11:32;0.93;;;0.93;;
20721;SDS011;10522;52.198;9.890;2022-07-05T10:14:01;1.80;;;0.90;;
20721;SDS011;10522;52.198;9.890;2022-07-05T10:16:34;6.10;;;1.30;;
20721;SDS011;10522;52.198;9.890;2022-07-05T10:19:00;0.87;;;0.87;;
20721;SDS011;10522;52.198;9.890;2022-07-05T10:21:25;1.83;;;0.60;;
20721;SDS011;10522;52.198;9.890;2022-07-05T10:23:52;2.40;;;0.63;;
20721;SDS011;10522;52.198;9.890;2022-07-05T10:26:19;0.67;;;0.67;;
20721;SDS011;10522;52.198;9.890;2022-07-05T10:28:46;4.20;;;1.00;;
20721;SDS011;10522;52.198;9.890;2022-07-05T10:31:15;1.00;;;0.90;;
20721;SDS011;10522;52.198;9.890;2022-07-05T10:33:41;1.23;;;0.80;;
20721;SDS011;10522;52.198;9.890;2022-07-05T10:36:09;1.53;;;0.80;;
20721;SDS011;10522;52.198;9.890;2022-07-05T10:38:43;1.50;;;1.07;;
20721;SDS011;10522;52.198;9.890;2022-07-05T10:41:14;3.13;;;0.73;;
20721;SDS011;10522;52.198;9.890;2022-07-05T10:43:44;1.70;;;0.83;;
20721;SDS011;10522;52.198;9.890;2022-07-05T10:46:10;2.07;;;0.90;;
20721;SDS011;10522;52.198;9.890;2022-07-05T10:48:35;2.80;;;0.97;;
20721;SDS011;10522;52.198;9.890;2022-07-05T10:56:20;0.90;;;0.83;;
20721;SDS011;10522;52.198;9.890;2022-07-05T10:58:46;1.10;;;0.70;;
20721;SDS011;10522;52.198;9.890;2022-07-05T11:06:23;2.57;;;1.00;;
20721;SDS011;10522;52.198;9.890;2022-07-05T11:11:37;0.70;;;0.70;;
20721;SDS011;10522;52.198;9.890;2022-07-05T11:16:47;0.80;;;0.80;;
20721;SDS011;10522;52.198;9.890;2022-07-05T11:19:14;0.70;;;0.70;;
20721;SDS011;10522;52.198;9.890;2022-07-05T11:24:29;3.57;;;0.70;;
20721;SDS011;10522;52.198;9.890;2022-07-05T11:27:00;0.77;;;0.77;;
20721;SDS011;10522;52.198;9.890;2022-07-05T11:29:46;1.10;;;1.00;;
20721;SDS011;10522;52.198;9.890;2022-07-05T11:32:17;1.37;;;0.80;;
20721;SDS011;10522;52.198;9.890;2022-07-05T11:34:46;2.00;;;0.80;;
20721;SDS011;10522;52.198;9.890;2022-07-05T11:39:39;0.80;;;0.70;;
20721;SDS011;10522;52.198;9.890;2022-07-05T11:42:05;4.47;;;0.80;;
20721;SDS011;10522;52.198;9.890;2022-07-05T11:44:33;0.90;;;0.70;;
20721;SDS011;10522;52.198;9.890;2022-07-05T11:46:59;0.80;;;0.80;;
20721;SDS011;10522;52.198;9.890;2022-07-05T11:49:25;1.40;;;0.70;;
20721;SDS011;10522;52.198;9.890;2022-07-05T11:51:58;0.93;;;0.87;;
20721;SDS011;10522;52.198;9.890;2022-07-05T11:54:25;0.57;;;0.57;;
20721;SDS011;10522;52.198;9.890;2022-07-05T11:56:52;1.23;;;0.67;;
20721;SDS011;10522;52.198;9.890;2022-07-05T11:59:19;2.63;;;0.83;;
20721;SDS011;10522;52.198;9.890;2022-07-05T12:01:46;2.07;;;0.50;;
20721;SDS011;10522;52.198;9.890;2022-07-05T12:04:11;3.70;;;1.00;;
20721;SDS011;10522;52.198;9.890;2022-07-05T12:06:45;1.23;;;0.67;;
20721;SDS011;10522;52.198;9.890;2022-07-05T12:09:13;1.30;;;0.73;;
20721;SDS011;10522;52.198;9.890;2022-07-05T12:11:39;2.07;;;0.80;;
20721;SDS011;10522;52.198;9.890;2022-07-05T12:14:27;0.70;;;0.70;;
20721;SDS011;10522;52.198;9.890;2022-07-05T12:19:45;0.70;;;0.70;;
20721;SDS011;10522;52.198;9.890;2022-07-05T12:22:11;1.87;;;0.60;;
20721;SDS011;10522;52.198;9.890;2022-07-05T12:24:37;1.93;;;0.60;;
20721;SDS011;10522;52.198;9.890;2022-07-05T12:27:02;0.80;;;0.80;;
20721;SDS011;10522;52.198;9.890;2022-07-05T12:29:28;0.73;;;0.73;;
20721;SDS011;10522;52.198;9.890;2022-07-05T12:31:57;1.03;;;0.60;;
20721;SDS011;10522;52.198;9.890;2022-07-05T12:34:25;0.70;;;0.70;;
20721;SDS011;10522;52.198;9.890;2022-07-05T12:36:50;2.93;;;0.67;;
20721;SDS011;10522;52.198;9.890;2022-07-05T12:39:19;1.23;;;0.70;;
20721;SDS011;10522;52.198;9.890;2022-07-05T12:41:44;0.93;;;0.60;;
20721;SDS011;10522;52.198;9.890;2022-07-05T12:44:10;0.50;;;0.50;;
20721;SDS011;10522;52.198;9.890;2022-07-05T12:46:39;0.60;;;0.60;;
20721;SDS011;10522;52.198;9.890;2022-07-05T12:49:05;0.53;;;0.53;;
20721;SDS011;10522;52.198;9.890;2022-07-05T12:51:31;3.17;;;0.83;;
20721;SDS011;10522;52.198;9.890;2022-07-05T12:53:58;0.67;;;0.67;;
20721;SDS011;10522;52.198;9.890;2022-07-05T12:56:46;1.33;;;0.70;;
20721;SDS011;10522;52.198;9.890;2022-07-05T12:59:31;0.60;;;0.50;;
20721;SDS011;10522;52.198;9.890;2022-07-05T13:01:56;3.83;;;0.70;;
20721;SDS011;10522;52.198;9.890;2022-07-05T13:04:22;3.60;;;0.80;;
20721;SDS011;10522;52.198;9.890;2022-07-05T13:06:48;0.60;;;0.60;;
20721;SDS011;10522;52.198;9.890;2022-07-05T13:12:07;2.73;;;0.60;;
20721;SDS011;10522;52.198;9.890;2022-07-05T13:14:35;1.60;;;0.70;;
20721;SDS011;10522;52.198;9.890;2022-07-05T13:17:02;0.77;;;0.50;;
20721;SDS011;10522;52.198;9.890;2022-07-05T13:19:28;1.27;;;0.80;;
20721;SDS011;10522;52.198;9.890;2022-07-05T13:21:54;0.87;;;0.77;;
20721;SDS011;10522;52.198;9.890;2022-07-05T13:24:19;1.97;;;0.70;;
20721;SDS011;10522;52.198;9.890;2022-07-05T13:26:45;1.00;;;0.90;;
20721;SDS011;10522;52.198;9.890;2022-07-05T13:29:10;1.60;;;0.80;;
20721;SDS011;10522;52.198;9.890;2022-07-05T13:31:36;0.50;;;0.50;;
20721;SDS011;10522;52.198;9.890;2022-07-05T13:34:01;0.60;;;0.60;;
20721;SDS011;10522;52.198;9.890;2022-07-05T13:36:27;1.80;;;0.60;;
20721;SDS011;10522;52.198;9.890;2022-07-05T13:38:53;0.87;;;0.60;;
20721;SDS011;10522;52.198;9.890;2022-07-05T13:41:18;1.10;;;0.60;;
20721;SDS011;10522;52.198;9.890;2022-07-05T13:43:44;3.23;;;0.70;;
20721;SDS011;10522;52.198;9.890;2022-07-05T13:46:10;0.70;;;0.70;;
20721;SDS011;10522;52.198;9.890;2022-07-05T13:48:36;1.20;;;0.50;;
20721;SDS011;10522;52.198;9.890;2022-07-05T13:51:02;0.77;;;0.77;;
20721;SDS011;10522;52.198;9.890;2022-07-05T13:53:28;0.70;;;0.70;;
20721;SDS011;10522;52.198;9.890;2022-07-05T13:55:53;0.60;;;0.60;;
20721;SDS011;10522;52.198;9.890;2022-07-05T13:58:19;1.27;;;0.70;;
20721;SDS011;10522;52.198;9.890;2022-07-05T14:00:44;1.00;;;0.70;;
20721;SDS011;10522;52.198;9.890;2022-07-05T14:03:10;1.67;;;0.83;;
20721;SDS011;10522;52.198;9.890;2022-07-05T14:05:35;0.73;;;0.60;;
20721;SDS011;10522;52.198;9.890;2022-07-05T14:08:01;2.47;;;1.00;;
20721;SDS011;10522;52.198;9.890;2022-07-05T14:10:26;1.17;;;0.60;;
20721;SDS011;10522;52.198;9.890;2022-07-05T14:12:52;2.13;;;1.00;;
20721;SDS011;10522;52.198;9.890;2022-07-05T14:15:17;3.10;;;1.00;;
20721;SDS011;10522;52.198;9.890;2022-07-05T14:17:43;0.80;;;0.60;;
20721;SDS011;10522;52.198;9.890;2022-07-05T14:20:08;0.90;;;0.70;;
20721;SDS011;10522;52.198;9.890;2022-07-05T14:22:34;1.90;;;0.63;;
20721;SDS011;10522;52.198;9.890;2022-07-05T14:25:00;2.17;;;1.33;;
20721;SDS011;10522;52.198;9.890;2022-07-05T14:27:26;2.33;;;0.73;;
20721;SDS011;10522;52.198;9.890;2022-07-05T14:29:51;7.00;;;0.87;;
20721;SDS011;10522;52.198;9.890;2022-07-05T14:32:17;0.90;;;0.90;;
20721;SDS011;10522;52.198;9.890;2022-07-05T14:34:42;2.53;;;1.30;;
20721;SDS011;10522;52.198;9.890;2022-07-05T14:37:08;0.80;;;0.80;;
20721;SDS011;10522;52.198;9.890;2022-07-05T14:39:33;2.37;;;0.87;;
20721;SDS011;10522;52.198;9.890;2022-07-05T14:41:59;1.00;;;0.90;;
20721;SDS011;10522;52.198;9.890;2022-07-05T14:44:24;3.00;;;0.70;;
20721;SDS011;10522;52.198;9.890;2022-07-05T14:46:50;1.23;;;0.80;;
20721;SDS011;10522;52.198;9.890;2022-07-05T14:49:15;0.53;;;0.53;;
20721;SDS011;10522;52.198;9.890;2022-07-05T14:51:41;0.60;;;0.60;;
20721;SDS011;10522;52.198;9.890;2022-07-05T14:54:06;1.47;;;0.80;;
20721;SDS011;10522;52.198;9.890;2022-07-05T14:56:32;0.93;;;0.50;;
20721;SDS011;10522;52.198;9.890;2022-07-05T14:58:57;0.70;;;0.70;;
20721;SDS011;10522;52.198;9.890;2022-07-05T15:01:23;0.50;;;0.50;;
20721;SDS011;10522;52.198;9.890;2022-07-05T15:03:48;1.27;;;0.80;;
20721;SDS011;10522;52.198;9.890;2022-07-05T15:06:14;1.23;;;0.80;;
20721;SDS011;10522;52.198;9.890;2022-07-05T15:08:39;4.77;;;2.33;;
20721;SDS011;10522;52.198;9.890;2022-07-05T15:11:05;1.23;;;0.70;;
20721;SDS011;10522;52.198;9.890;2022-07-05T15:13:31;2.20;;;1.00;;
20721;SDS011;10522;52.198;9.890;2022-07-05T15:15:56;1.47;;;0.83;;
20721;SDS011;10522;52.198;9.890;2022-07-05T15:18:23;2.43;;;0.90;;